Weather reports worldwide

Advertisment
Bousson, Italy (16058): temperature & dewpoint: 19.08.2019 08:00:00 - 25.08.2019 08:00:00 (CEST)Bousson, Italy (16058): wind speed: 19.08.2019 08:00:00 - 25.08.2019 08:00:00 (CEST)Bousson, Italy (16058): wind direction: 19.08.2019 08:00:00 - 25.08.2019 08:00:00 (CEST)
Date & Time tt [°C] td [°C] ff [km/h] ff [kn] dd
25.08.2019 08:00:00 - - - - -
25.08.2019 07:00:00 8,9 8,6 2 1 E
25.08.2019 06:00:00 9,5 9,2 2 1 E
25.08.2019 05:00:00 10,3 10,3 0 0 N
25.08.2019 04:00:00 10,7 10,2 2 1 E
25.08.2019 03:00:00 11,4 11,4 0 0 N
25.08.2019 02:00:00 11,3 11,3 0 0 N
25.08.2019 01:00:00 10,9 10,3 2 1 ENE
25.08.2019 00:00:00 11,5 10,9 0 0 N
24.08.2019 23:00:00 12,6 11,6 0 0 N
24.08.2019 22:00:00 13,2 11,7 0 0 N
24.08.2019 21:00:00 14,8 12,5 0 0 N
24.08.2019 20:00:00 17,2 14,2 2 1 SSW
24.08.2019 19:00:00 18,2 14,0 8 4 SW
24.08.2019 18:00:00 19,1 13,6 8 4 SW
24.08.2019 17:00:00 19,7 11,9 11 6 WSW
24.08.2019 16:00:00 21,2 13,3 13 7 WSW
24.08.2019 15:00:00 21,5 14,6 13 7 WSW
24.08.2019 14:00:00 19,3 13,4 8 4 W
24.08.2019 13:00:00 19,2 12,8 8 4 WSW
24.08.2019 12:00:00 18,8 14,0 11 6 W
24.08.2019 11:00:00 16,9 14,8 8 4 WSW
24.08.2019 10:00:00 13,2 13,1 2 1 SW
24.08.2019 09:00:00 10,4 10,4 2 1 ESE
24.08.2019 08:00:00 8,1 8,1 2 1 ENE
24.08.2019 07:00:00 7,7 7,7 2 1 E
24.08.2019 06:00:00 8,1 8,0 2 1 ENE
24.08.2019 05:00:00 8,5 8,2 2 1 ENE
24.08.2019 04:00:00 9,1 8,8 2 1 ENE
24.08.2019 03:00:00 9,9 9,7 0 0 N
24.08.2019 02:00:00 10,1 9,6 2 1 E
24.08.2019 01:00:00 10,6 9,8 0 0 N
24.08.2019 00:00:00 11,7 10,9 0 0 N
23.08.2019 23:00:00 12,9 12,1 0 0 N
23.08.2019 22:00:00 13,7 12,7 0 0 N
23.08.2019 21:00:00 14,6 13,4 8 4 WSW
23.08.2019 20:00:00 16,9 13,3 4 2 SW
23.08.2019 19:00:00 17,1 12,8 9 5 SW
23.08.2019 18:00:00 18,6 14,8 8 4 SW
23.08.2019 17:00:00 18,9 14,3 11 6 WSW
23.08.2019 16:00:00 19,5 12,9 8 4 W
23.08.2019 15:00:00 19,7 15,1 4 2 ENE
23.08.2019 14:00:00 18,6 14,2 9 5 WSW
23.08.2019 13:00:00 17,7 13,9 11 6 WSW
23.08.2019 12:00:00 18,3 14,9 8 4 WSW
23.08.2019 11:00:00 16,6 14,2 4 2 NW
23.08.2019 10:00:00 13,9 13,8 2 1 ESE
23.08.2019 09:00:00 9,8 9,8 0 0 N
23.08.2019 08:00:00 7,7 7,7 2 1 E
23.08.2019 07:00:00 7,4 7,4 2 1 ENE
23.08.2019 06:00:00 7,6 7,6 2 1 E
23.08.2019 05:00:00 7,8 7,7 0 0 N
23.08.2019 04:00:00 8,2 8,0 2 1 E
23.08.2019 03:00:00 8,5 8,2 2 1 E
23.08.2019 02:00:00 9,0 8,7 2 1 E
23.08.2019 01:00:00 9,8 9,3 0 0 N
23.08.2019 00:00:00 10,4 9,8 2 1 E
22.08.2019 23:00:00 11,2 10,7 2 1 E
22.08.2019 22:00:00 12,2 11,3 2 1 E
22.08.2019 21:00:00 13,7 12,4 0 0 N
22.08.2019 20:00:00 15,5 13,8 2 1 E
22.08.2019 19:00:00 17,3 15,6 2 1 SW
22.08.2019 18:00:00 18,1 14,9 11 6 WSW
22.08.2019 17:00:00 22,0 10,1 8 4 WSW
22.08.2019 16:00:00 20,1 12,3 4 2 W
22.08.2019 15:00:00 18,6 13,6 9 5 WSW
22.08.2019 14:00:00 17,8 15,5 8 4 W
22.08.2019 13:00:00 16,1 14,7 8 4 WSW
22.08.2019 12:00:00 15,6 14,4 5 3 W
22.08.2019 11:00:00 14,5 14,3 4 2 WSW
22.08.2019 10:00:00 12,5 12,5 0 0 N
22.08.2019 09:00:00 11,1 11,1 0 0 N
22.08.2019 08:00:00 10,1 10,1 0 0 N
22.08.2019 07:00:00 9,6 9,4 2 1 ENE
22.08.2019 06:00:00 9,9 9,9 2 1 ENE
22.08.2019 05:00:00 10,1 9,8 0 0 N
22.08.2019 04:00:00 11,1 11,1 0 0 N
22.08.2019 03:00:00 11,0 10,7 0 0 N
22.08.2019 02:00:00 11,4 10,9 2 1 E
22.08.2019 01:00:00 12,0 11,2 2 1 E
22.08.2019 00:00:00 13,2 12,7 2 1 NNE
21.08.2019 23:00:00 13,7 13,0 2 1 E
21.08.2019 22:00:00 14,3 13,3 2 1 ESE
21.08.2019 21:00:00 15,0 14,0 0 0 N
21.08.2019 20:00:00 16,2 14,5 0 0 N
21.08.2019 19:00:00 16,6 15,1 0 0 N
21.08.2019 18:00:00 16,9 15,4 4 2 WSW
21.08.2019 17:00:00 19,2 13,7 11 6 WSW
21.08.2019 16:00:00 21,2 14,3 16 9 NE
21.08.2019 15:00:00 21,5 13,6 13 7 W
21.08.2019 14:00:00 20,9 12,8 15 8 WSW
21.08.2019 13:00:00 20,6 13,0 13 7 WSW
21.08.2019 12:00:00 19,4 13,7 11 6 W
21.08.2019 11:00:00 17,5 13,1 8 4 WSW
21.08.2019 10:00:00 13,7 13,6 2 1 SSW
21.08.2019 09:00:00 10,0 10,0 0 0 N
21.08.2019 08:00:00 7,6 7,6 2 1 E
21.08.2019 07:00:00 7,4 7,4 2 1 E
21.08.2019 06:00:00 7,8 7,7 0 0 N
21.08.2019 05:00:00 8,2 8,0 2 1 ENE
21.08.2019 04:00:00 8,4 7,9 2 1 E
21.08.2019 03:00:00 9,3 8,7 2 1 E
21.08.2019 02:00:00 10,3 10,0 0 0 N
21.08.2019 01:00:00 10,2 9,7 2 1 E
21.08.2019 00:00:00 11,2 10,4 0 0 N
20.08.2019 23:00:00 11,8 10,9 0 0 N
20.08.2019 22:00:00 13,2 11,7 0 0 N
20.08.2019 21:00:00 14,6 13,6 4 2 S
20.08.2019 20:00:00 15,7 12,0 8 4 WSW
20.08.2019 19:00:00 16,8 14,7 9 5 WSW
20.08.2019 18:00:00 16,3 15,1 9 5 SW
20.08.2019 17:00:00 16,5 15,3 11 6 SW
20.08.2019 16:00:00 17,0 15,5 18 10 WSW
20.08.2019 15:00:00 18,3 16,4 13 7 WSW
20.08.2019 14:00:00 17,8 16,1 8 4 WSW
20.08.2019 13:00:00 17,3 15,6 8 4 WSW
20.08.2019 12:00:00 17,1 15,7 11 6 WSW
20.08.2019 11:00:00 15,4 15,2 2 1 WSW
20.08.2019 10:00:00 13,5 13,3 2 1 E
20.08.2019 09:00:00 12,8 12,8 0 0 N
20.08.2019 08:00:00 12,2 12,2 0 0 N
20.08.2019 07:00:00 11,9 11,9 2 1 E
20.08.2019 06:00:00 11,9 11,9 2 1 E
20.08.2019 05:00:00 11,5 11,5 2 1 SE
20.08.2019 04:00:00 11,3 10,8 0 0 N
20.08.2019 03:00:00 12,4 11,9 0 0 N
20.08.2019 02:00:00 13,2 12,6 2 1 SW
20.08.2019 01:00:00 14,3 13,5 0 0 N
20.08.2019 00:00:00 15,6 15,5 4 2 WNW
19.08.2019 23:00:00 16,0 15,9 2 1 SE
19.08.2019 22:00:00 16,2 16,1 0 0 N
19.08.2019 21:00:00 16,3 16,2 4 2 WSW
19.08.2019 20:00:00 16,8 15,8 5 3 WSW
19.08.2019 19:00:00 17,3 16,1 4 2 WSW
19.08.2019 18:00:00 18,4 16,7 8 4 WSW
19.08.2019 17:00:00 18,4 16,1 8 4 SW
19.08.2019 16:00:00 20,3 15,4 11 6 WSW
19.08.2019 15:00:00 20,5 15,0 13 7 WSW
19.08.2019 14:00:00 21,6 13,4 13 7 WSW
19.08.2019 13:00:00 21,4 12,8 13 7 WSW
19.08.2019 12:00:00 19,5 15,1 11 6 WSW
19.08.2019 11:00:00 19,4 13,7 4 2 WNW
19.08.2019 10:00:00 17,5 16,0 4 2 SE
19.08.2019 09:00:00 14,1 14,0 2 1 WNW
19.08.2019 08:00:00 12,3 12,0 0 0 N

tt = temperature
td = dewpoint
ff = wind speed
dd = wind direction

Next stations